createdAt,value
2022-11-09T00:00:00.390Z,100179.13
2022-11-09T00:02:27.318Z,100182.38
2022-11-09T00:04:53.774Z,100190.03
2022-11-09T00:07:20.356Z,100194.84
2022-11-09T00:09:46.960Z,100191.28
2022-11-09T00:12:13.528Z,100185.59
2022-11-09T00:14:40.031Z,100187.38
2022-11-09T00:17:06.544Z,100180.41
2022-11-09T00:19:33.043Z,100176.72
2022-11-09T00:21:59.503Z,100176.19
2022-11-09T00:24:25.952Z,100185.81
2022-11-09T00:26:52.519Z,100201.81
2022-11-09T00:29:18.974Z,100200.72
2022-11-09T00:31:45.436Z,100202.81
2022-11-09T00:34:11.930Z,100195.22
2022-11-09T00:36:38.387Z,100202.25
2022-11-09T00:39:04.837Z,100207.66
2022-11-09T00:41:31.605Z,100201.97
2022-11-09T00:43:58.090Z,100214.91
2022-11-09T00:46:24.906Z,100220.56
2022-11-09T00:48:51.741Z,100215.22
2022-11-09T00:51:19.000Z,100208.97
2022-11-09T00:53:48.180Z,100204.53
2022-11-09T00:56:14.910Z,100212.31
2022-11-09T00:58:41.567Z,100223.81
2022-11-09T01:01:14.099Z,100206.16
2022-11-09T01:03:40.738Z,100215.06
2022-11-09T01:06:08.037Z,100219.34
2022-11-09T01:08:35.253Z,100221.00
2022-11-09T01:11:06.870Z,100214.81
2022-11-09T01:13:33.399Z,100221.00
2022-11-09T01:15:59.951Z,100205.66
2022-11-09T01:18:26.451Z,100213.97
2022-11-09T01:20:52.933Z,100204.53
2022-11-09T01:23:20.666Z,100206.16
2022-11-09T01:25:47.436Z,100213.56
2022-11-09T01:28:13.889Z,100209.34
2022-11-09T01:30:42.243Z,100216.13
2022-11-09T01:33:11.198Z,100204.66
2022-11-09T01:35:39.138Z,100192.81
2022-11-09T01:38:06.525Z,100207.44
2022-11-09T01:40:33.851Z,100212.13
2022-11-09T01:43:07.033Z,100216.31
2022-11-09T01:45:33.482Z,100211.97
2022-11-09T01:48:06.858Z,100212.94
2022-11-09T01:50:41.538Z,100218.88
2022-11-09T01:53:11.639Z,100227.25
2022-11-09T01:55:38.133Z,100216.81
2022-11-09T01:58:08.704Z,100222.97
2022-11-09T02:00:37.409Z,100217.38
2022-11-09T02:03:08.506Z,100213.06
2022-11-09T02:05:36.526Z,100207.88
2022-11-09T02:08:05.520Z,100203.78
2022-11-09T02:10:56.021Z,100190.72
2022-11-09T02:13:25.010Z,100196.63
2022-11-09T02:15:51.817Z,100199.66
2022-11-09T02:18:19.163Z,100206.19
2022-11-09T02:20:54.177Z,100204.88
2022-11-09T02:23:21.345Z,100212.06
2022-11-09T02:25:55.746Z,100210.38
2022-11-09T02:28:22.774Z,100210.16
2022-11-09T02:30:51.828Z,100203.19
2022-11-09T02:33:18.619Z,100208.53
2022-11-09T02:35:45.220Z,100200.97
2022-11-09T02:38:13.017Z,100204.66
2022-11-09T02:40:41.564Z,100208.97
2022-11-09T02:43:08.658Z,100196.44
2022-11-09T02:45:35.126Z,100191.31
2022-11-09T02:48:01.598Z,100195.25
2022-11-09T02:50:28.473Z,100189.03
2022-11-09T02:52:54.995Z,100188.81
2022-11-09T02:55:21.445Z,100194.88
2022-11-09T02:57:47.906Z,100190.28
2022-11-09T03:00:14.738Z,100185.78
2022-11-09T03:02:41.482Z,100191.47
2022-11-09T03:05:08.093Z,100189.03
2022-11-09T03:07:34.545Z,100183.09
2022-11-09T03:10:00.998Z,100182.66
2022-11-09T03:12:30.021Z,100193.72
2022-11-09T03:14:58.199Z,100184.47
2022-11-09T03:17:25.101Z,100191.84
2022-11-09T03:19:51.578Z,100197.56
2022-11-09T03:22:18.064Z,100191.41
2022-11-09T03:24:44.612Z,100188.28
2022-11-09T03:27:11.074Z,100189.72
2022-11-09T03:29:37.540Z,100179.22
2022-11-09T03:32:04.646Z,100181.72
2022-11-09T03:34:31.123Z,100187.22
2022-11-09T03:36:57.749Z,100184.47
2022-11-09T03:39:24.188Z,100184.72
2022-11-09T03:41:50.640Z,100180.03
2022-11-09T03:44:17.071Z,100188.66
2022-11-09T03:46:43.523Z,100193.97
2022-11-09T03:49:10.288Z,100199.91
2022-11-09T03:51:36.754Z,100192.97
2022-11-09T03:54:03.219Z,100182.50
2022-11-09T03:56:29.674Z,100188.88
2022-11-09T03:58:56.117Z,100190.00
2022-11-09T04:01:22.700Z,100180.38
2022-11-09T04:03:49.211Z,100186.72
2022-11-09T04:06:15.693Z,100175.47
2022-11-09T04:08:45.724Z,100185.72
2022-11-09T04:11:14.869Z,100177.56
2022-11-09T04:13:41.322Z,100175.84
2022-11-09T04:16:07.888Z,100166.75
2022-11-09T04:18:34.324Z,100173.72
2022-11-09T04:21:00.964Z,100170.53
2022-11-09T04:23:27.485Z,100169.34
2022-11-09T04:25:53.950Z,100168.91
2022-11-09T04:28:20.411Z,100174.03
2022-11-09T04:30:46.870Z,100171.34
2022-11-09T04:33:13.338Z,100171.47
2022-11-09T04:35:39.777Z,100171.28
2022-11-09T04:38:07.792Z,100167.47
2022-11-09T04:40:35.246Z,100172.22
2022-11-09T04:43:03.492Z,100183.41
2022-11-09T04:45:29.960Z,100195.88
2022-11-09T04:48:05.810Z,100193.81
2022-11-09T04:50:33.077Z,100197.44
2022-11-09T04:53:11.010Z,100196.13
2022-11-09T04:55:37.827Z,100182.78
2022-11-09T04:58:12.113Z,100184.41
2022-11-09T05:00:38.789Z,100188.31
2022-11-09T05:03:06.519Z,100180.91
2022-11-09T05:05:34.367Z,100188.25
2022-11-09T05:08:00.864Z,100181.50
2022-11-09T05:10:27.433Z,100184.59
2022-11-09T05:12:58.674Z,100187.63
2022-11-09T05:15:25.220Z,100193.38
2022-11-09T05:17:51.680Z,100196.19
2022-11-09T05:20:18.167Z,100193.97
2022-11-09T05:23:03.210Z,100189.13
2022-11-09T05:25:29.650Z,100197.47
2022-11-09T05:27:56.111Z,100199.72
2022-11-09T05:30:22.873Z,100204.06
2022-11-09T05:32:49.342Z,100206.16
2022-11-09T05:35:15.835Z,100204.25
2022-11-09T05:37:42.385Z,100209.63
2022-11-09T05:40:09.539Z,100211.03
2022-11-09T05:42:40.728Z,100217.78
2022-11-09T05:45:40.243Z,100212.81
2022-11-09T05:47:56.087Z,100216.31
2022-11-09T05:50:22.567Z,100220.75
2022-11-09T05:52:49.024Z,100217.72
2022-11-09T05:55:15.485Z,100225.59
2022-11-09T05:57:41.959Z,100229.09
2022-11-09T06:00:11.096Z,100231.00
2022-11-09T06:02:37.828Z,100237.31
2022-11-09T06:05:04.414Z,100241.06
2022-11-09T06:07:30.865Z,100240.44
2022-11-09T06:09:57.317Z,100242.28
2022-11-09T06:12:23.785Z,100242.94
2022-11-09T06:14:50.236Z,100245.19
2022-11-09T06:17:16.688Z,100232.09
2022-11-09T06:19:43.202Z,100229.13
2022-11-09T06:22:09.669Z,100229.75
2022-11-09T06:24:36.120Z,100216.22
2022-11-09T06:27:02.600Z,100217.19
2022-11-09T06:29:29.057Z,100225.41
2022-11-09T06:31:55.622Z,100233.19
2022-11-09T06:34:22.069Z,100245.16
2022-11-09T06:36:48.523Z,100243.91
2022-11-09T06:39:15.039Z,100245.81
2022-11-09T06:41:46.186Z,100256.63
2022-11-09T06:44:13.981Z,100259.31
2022-11-09T06:46:40.505Z,100260.75
2022-11-09T06:49:07.094Z,100261.19
2022-11-09T06:51:33.618Z,100268.56
2022-11-09T06:54:00.090Z,100261.66
2022-11-09T06:56:26.652Z,100271.06
2022-11-09T06:58:53.093Z,100270.06
2022-11-09T07:01:20.124Z,100277.00
2022-11-09T07:03:46.669Z,100275.56
2022-11-09T07:06:13.988Z,100279.25
2022-11-09T07:08:41.287Z,100288.28
2022-11-09T07:11:10.834Z,100284.09
2022-11-09T07:13:38.199Z,100289.44
2022-11-09T07:16:05.648Z,100285.88
2022-11-09T07:18:32.339Z,100283.22
2022-11-09T07:20:58.805Z,100278.94
2022-11-09T07:23:25.415Z,100273.97
2022-11-09T07:25:52.331Z,100271.41
2022-11-09T07:28:18.920Z,100259.31
2022-11-09T07:30:45.478Z,100245.81
2022-11-09T07:33:18.086Z,100251.25
2022-11-09T07:35:44.778Z,100247.28
2022-11-09T07:38:11.306Z,100242.88
2022-11-09T07:40:37.815Z,100230.00
2022-11-09T07:43:05.651Z,100239.06
2022-11-09T07:45:33.313Z,100238.53
2022-11-09T07:48:01.597Z,100243.13
2022-11-09T07:50:29.260Z,100220.09
2022-11-09T07:52:56.506Z,100230.63
2022-11-09T07:55:23.371Z,100245.81
2022-11-09T07:57:51.491Z,100242.53
2022-11-09T08:00:23.353Z,100243.00
2022-11-09T08:02:50.201Z,100257.53
2022-11-09T08:05:16.713Z,100273.16
2022-11-09T08:07:43.214Z,100273.63
2022-11-09T08:10:10.043Z,100283.03
2022-11-09T08:12:37.368Z,100285.78
2022-11-09T08:15:05.121Z,100281.63
2022-11-09T08:17:32.279Z,100294.94
2022-11-09T08:19:58.734Z,100295.28
2022-11-09T08:22:25.203Z,100297.47
2022-11-09T08:24:52.129Z,100290.03
2022-11-09T08:27:18.630Z,100288.72
2022-11-09T08:29:45.266Z,100294.19
2022-11-09T08:32:12.153Z,100293.84
2022-11-09T08:34:38.605Z,100302.56
2022-11-09T08:37:05.374Z,100299.31
2022-11-09T08:39:31.893Z,100295.06
2022-11-09T08:41:58.613Z,100300.34
2022-11-09T08:44:25.066Z,100296.09
2022-11-09T08:46:51.532Z,100290.06
2022-11-09T08:49:18.041Z,100257.84
2022-11-09T08:51:44.593Z,100269.84
2022-11-09T08:54:13.429Z,100266.97
2022-11-09T08:56:40.061Z,100290.81
2022-11-09T08:59:06.570Z,100284.66
2022-11-09T09:01:33.087Z,100305.88
2022-11-09T09:03:59.604Z,100300.63
2022-11-09T09:06:30.816Z,100314.63
2022-11-09T09:08:57.834Z,100305.59
2022-11-09T09:11:24.341Z,100317.47
2022-11-09T09:13:50.808Z,100322.03
2022-11-09T09:16:17.301Z,100312.97
2022-11-09T09:18:43.947Z,100329.53
2022-11-09T09:21:10.767Z,100322.97
2022-11-09T09:23:37.600Z,100339.16
2022-11-09T09:26:04.255Z,100350.38
2022-11-09T09:28:30.785Z,100350.34
2022-11-09T09:30:59.596Z,100346.41
2022-11-09T09:33:26.237Z,100336.66
2022-11-09T09:35:55.509Z,100319.63
2022-11-09T09:38:22.392Z,100311.09
2022-11-09T09:40:59.105Z,100319.59
2022-11-09T09:43:43.220Z,100339.16
2022-11-09T09:46:18.088Z,100326.41
2022-11-09T09:48:51.849Z,100330.13
2022-11-09T09:51:39.986Z,100332.41
2022-11-09T09:54:19.795Z,100322.84
2022-11-09T09:56:47.314Z,100331.66
2022-11-09T09:59:38.560Z,100327.91
2022-11-09T10:02:16.200Z,100325.97
2022-11-09T10:04:42.714Z,100334.56
2022-11-09T10:07:33.606Z,100328.03
2022-11-09T10:10:07.039Z,100327.06
2022-11-09T10:13:11.617Z,100321.16
2022-11-09T10:15:38.959Z,100319.88
2022-11-09T10:18:16.446Z,100320.44
2022-11-09T10:21:20.371Z,100325.78
2022-11-09T10:23:53.777Z,100327.84
2022-11-09T10:26:28.126Z,100334.28
2022-11-09T10:29:15.766Z,100348.91
2022-11-09T10:31:44.093Z,100344.31
2022-11-09T10:34:27.456Z,100329.72
2022-11-09T10:37:02.087Z,100351.41
2022-11-09T10:39:38.910Z,100345.69
2022-11-09T10:42:05.413Z,100338.56
2022-11-09T10:44:31.889Z,100357.56
2022-11-09T10:47:05.906Z,100366.94
2022-11-09T10:49:33.933Z,100357.72
2022-11-09T10:52:00.893Z,100366.94
2022-11-09T10:54:38.033Z,100369.00
2022-11-09T10:57:12.980Z,100368.69
2022-11-09T10:59:43.818Z,100369.25
2022-11-09T11:02:30.391Z,100377.31
2022-11-09T11:04:59.738Z,100371.38
2022-11-09T11:07:26.307Z,100374.63
2022-11-09T11:09:52.817Z,100374.28
2022-11-09T11:12:22.518Z,100368.84
2022-11-09T11:14:48.972Z,100373.94
2022-11-09T11:17:25.425Z,100377.31
2022-11-09T11:19:51.945Z,100372.78
2022-11-09T11:22:22.670Z,100367.19
2022-11-09T11:25:06.038Z,100375.84
2022-11-09T11:28:14.536Z,100379.13
2022-11-09T11:30:40.989Z,100381.00
2022-11-09T11:33:20.737Z,100392.66
2022-11-09T11:35:58.192Z,100386.50
2022-11-09T11:38:33.813Z,100389.00
2022-11-09T11:41:51.893Z,100385.53
2022-11-09T11:44:40.020Z,100388.41
2022-11-09T11:47:25.237Z,100398.28
2022-11-09T11:50:11.863Z,100388.91
2022-11-09T11:53:11.531Z,100397.47
2022-11-09T11:55:53.033Z,100397.91
2022-11-09T11:58:34.166Z,100406.91
2022-11-09T12:01:31.245Z,100408.75
2022-11-09T12:04:21.536Z,100398.31
2022-11-09T12:06:53.870Z,100409.63
2022-11-09T12:09:27.176Z,100412.28
2022-11-09T12:12:17.042Z,100416.41
2022-11-09T12:15:02.422Z,100416.06
2022-11-09T12:17:42.311Z,100413.38
2022-11-09T12:20:27.518Z,100417.25
2022-11-09T12:23:11.111Z,100417.41
2022-11-09T12:25:56.028Z,100417.38
2022-11-09T12:28:52.496Z,100410.59
2022-11-09T12:31:34.217Z,100416.31
2022-11-09T12:34:05.914Z,100419.19
2022-11-09T12:36:44.683Z,100409.56
2022-11-09T12:39:40.313Z,100414.09
2022-11-09T12:45:54.449Z,100415.25
2022-11-09T12:52:01.351Z,100422.41
2022-11-09T12:54:28.115Z,100425.47
2022-11-09T12:57:00.177Z,100424.25
2022-11-09T12:59:26.535Z,100417.91
2022-11-09T13:01:55.478Z,100416.22
2022-11-09T13:04:23.336Z,100420.69
2022-11-09T13:07:17.740Z,100421.22
2022-11-09T13:09:45.344Z,100412.59
2022-11-09T13:12:20.385Z,100412.03
2022-11-09T13:14:46.911Z,100417.19
2022-11-09T13:17:28.466Z,100412.44
2022-11-09T13:19:56.116Z,100415.94
2022-11-09T13:22:23.054Z,100415.56
2022-11-09T13:24:50.539Z,100419.84
2022-11-09T13:27:40.498Z,100427.44
2022-11-09T13:30:25.142Z,100428.31
2022-11-09T13:33:18.858Z,100427.34
2022-11-09T13:35:45.431Z,100424.22
2022-11-09T13:38:16.879Z,100426.09
2022-11-09T13:40:59.789Z,100426.69
2022-11-09T13:43:29.605Z,100425.44
2022-11-09T13:46:01.310Z,100429.56
2022-11-09T13:48:41.241Z,100426.09
2022-11-09T13:51:18.372Z,100422.19
2022-11-09T13:54:00.415Z,100420.59
2022-11-09T13:56:29.782Z,100423.66
2022-11-09T13:59:03.265Z,100423.09
2022-11-09T14:01:35.516Z,100421.88
2022-11-09T14:04:04.651Z,100419.41
2022-11-09T14:06:32.590Z,100421.72
2022-11-09T14:09:00.317Z,100420.66
2022-11-09T14:11:57.109Z,100425.84
2022-11-09T14:14:43.740Z,100414.97
2022-11-09T14:17:38.015Z,100419.25
2022-11-09T14:20:53.984Z,100421.09
2022-11-09T14:23:23.026Z,100427.25
2022-11-09T14:25:49.481Z,100433.03
2022-11-09T14:28:24.723Z,100424.78
2022-11-09T14:30:55.858Z,100420.28
2022-11-09T14:33:27.972Z,100423.78
2022-11-09T14:35:57.252Z,100421.16
2022-11-09T14:38:26.520Z,100426.44
2022-11-09T14:40:53.941Z,100427.47
2022-11-09T14:43:41.996Z,100430.38
2022-11-09T14:46:16.786Z,100428.50
2022-11-09T14:48:51.032Z,100436.34
2022-11-09T14:51:17.575Z,100431.63
2022-11-09T14:53:44.265Z,100428.50
2022-11-09T14:56:13.874Z,100431.00
2022-11-09T14:58:42.973Z,100432.47
2022-11-09T15:01:19.935Z,100427.75
2022-11-09T15:04:11.832Z,100433.91
2022-11-09T15:06:52.754Z,100435.78
2022-11-09T15:09:21.859Z,100441.75
2022-11-09T15:11:49.138Z,100438.88
2022-11-09T15:14:34.844Z,100443.44
2022-11-09T15:17:18.833Z,100444.25
2022-11-09T15:20:13.503Z,100446.31
2022-11-09T15:22:51.057Z,100432.78
2022-11-09T15:25:20.493Z,100426.81
2022-11-09T15:28:15.294Z,100430.34
2022-11-09T15:30:49.036Z,100439.78
2022-11-09T15:33:18.574Z,100429.53
2022-11-09T15:36:02.763Z,100436.13
2022-11-09T15:38:45.850Z,100445.13
2022-11-09T15:41:16.319Z,100450.09
2022-11-09T15:43:43.347Z,100455.66
2022-11-09T15:46:14.697Z,100452.59
2022-11-09T15:48:45.748Z,100459.97
2022-11-09T15:51:13.220Z,100462.00
2022-11-09T15:53:39.908Z,100460.59
2022-11-09T15:56:06.687Z,100455.25
2022-11-09T15:58:33.219Z,100457.09
2022-11-09T16:00:59.731Z,100455.06
2022-11-09T16:03:26.285Z,100448.09
2022-11-09T16:05:52.751Z,100448.09
2022-11-09T16:08:19.748Z,100444.81
2022-11-09T16:10:46.581Z,100435.97
2022-11-09T16:13:13.053Z,100438.63
2022-11-09T16:15:39.893Z,100438.22
2022-11-09T16:18:06.741Z,100440.47
2022-11-09T16:20:33.273Z,100458.78
2022-11-09T16:22:59.760Z,100489.22
2022-11-09T16:25:26.373Z,100495.22
2022-11-09T16:27:53.499Z,100499.28
2022-11-09T16:30:20.465Z,100489.41
2022-11-09T16:32:46.946Z,100498.91
2022-11-09T16:35:29.151Z,100507.41
2022-11-09T16:37:56.159Z,100519.00
2022-11-09T16:40:22.772Z,100523.06
2022-11-09T16:42:50.252Z,100525.09
2022-11-09T16:45:17.222Z,100525.28
2022-11-09T16:47:48.570Z,100518.13
2022-11-09T16:50:15.249Z,100522.63
2022-11-09T16:52:41.769Z,100527.13
2022-11-09T16:55:09.353Z,100530.81
2022-11-09T16:57:37.749Z,100533.47
2022-11-09T17:00:06.387Z,100527.16
2022-11-09T17:02:32.969Z,100516.47
2022-11-09T17:04:59.424Z,100532.44
2022-11-09T17:07:25.907Z,100532.66
2022-11-09T17:09:52.369Z,100528.38
2022-11-09T17:12:18.899Z,100530.22
2022-11-09T17:14:45.365Z,100529.88
2022-11-09T17:17:11.874Z,100536.41
2022-11-09T17:19:38.396Z,100537.66
2022-11-09T17:22:04.932Z,100541.81
2022-11-09T17:24:31.772Z,100536.94
2022-11-09T17:27:02.510Z,100541.63
2022-11-09T17:29:28.968Z,100537.78
2022-11-09T17:31:55.511Z,100546.94
2022-11-09T17:34:21.989Z,100547.22
2022-11-09T17:37:03.635Z,100551.72
2022-11-09T17:39:31.387Z,100552.25
2022-11-09T17:41:57.890Z,100555.63
2022-11-09T17:44:24.362Z,100554.41
2022-11-09T17:46:50.877Z,100561.38
2022-11-09T17:49:17.353Z,100559.53
2022-11-09T17:51:43.804Z,100566.50
2022-11-09T17:54:10.293Z,100583.66
2022-11-09T17:56:36.759Z,100581.91
2022-11-09T17:59:04.327Z,100579.25
2022-11-09T18:01:30.856Z,100590.69
2022-11-09T18:03:57.782Z,100593.97
2022-11-09T18:06:24.723Z,100593.94
2022-11-09T18:09:16.483Z,100601.06
2022-11-09T18:11:37.630Z,100608.91
2022-11-09T18:14:04.279Z,100610.59
2022-11-09T18:16:30.795Z,100603.53
2022-11-09T18:19:01.655Z,100609.91
2022-11-09T18:21:28.609Z,100617.13
2022-11-09T18:23:55.304Z,100611.38
2022-11-09T18:26:21.896Z,100602.56
2022-11-09T18:28:48.377Z,100611.53
2022-11-09T18:31:14.935Z,100630.13
2022-11-09T18:33:42.704Z,100628.28
2022-11-09T18:36:15.544Z,100624.81
2022-11-09T18:38:42.870Z,100631.97
2022-11-09T18:41:10.273Z,100632.78
2022-11-09T18:43:36.727Z,100633.03
2022-11-09T18:46:05.603Z,100630.19
2022-11-09T18:48:32.102Z,100642.31
2022-11-09T18:50:59.375Z,100639.47
2022-11-09T18:53:28.430Z,100646.88
2022-11-09T18:56:06.507Z,100642.81
2022-11-09T18:58:33.706Z,100644.66
2022-11-09T19:01:05.413Z,100650.38
2022-11-09T19:03:32.322Z,100655.94
2022-11-09T19:05:58.764Z,100655.28
2022-11-09T19:08:43.790Z,100666.34
2022-11-09T19:11:12.083Z,100670.03
2022-11-09T19:13:39.003Z,100665.53
2022-11-09T19:16:06.586Z,100677.03
2022-11-09T19:18:33.059Z,100670.91
2022-11-09T19:20:59.552Z,100674.56
2022-11-09T19:23:32.791Z,100677.72
2022-11-09T19:26:01.425Z,100703.34
2022-11-09T19:28:27.970Z,100700.03
2022-11-09T19:30:57.152Z,100704.94
2022-11-09T19:33:23.606Z,100703.81
2022-11-09T19:36:23.139Z,100709.69
2022-11-09T19:38:39.671Z,100718.06
2022-11-09T19:41:06.181Z,100709.16
2022-11-09T19:43:32.631Z,100712.44
2022-11-09T19:45:59.073Z,100714.47
2022-11-09T19:48:25.702Z,100713.78
2022-11-09T19:50:52.820Z,100715.41
2022-11-09T19:53:19.282Z,100710.97
2022-11-09T19:55:45.778Z,100721.25
2022-11-09T19:58:12.436Z,100725.69
2022-11-09T20:00:38.924Z,100747.03
2022-11-09T20:03:05.559Z,100737.00
2022-11-09T20:05:35.610Z,100744.28
2022-11-09T20:08:03.502Z,100751.38
2022-11-09T20:10:32.765Z,100753.59
2022-11-09T20:12:59.248Z,100756.63
2022-11-09T20:15:25.701Z,100755.19
2022-11-09T20:17:52.168Z,100767.56
2022-11-09T20:20:18.672Z,100770.47
2022-11-09T20:22:45.212Z,100772.56
2022-11-09T20:25:11.644Z,100781.63
2022-11-09T20:27:38.096Z,100776.50
2022-11-09T20:30:05.205Z,100784.28
2022-11-09T20:32:31.703Z,100781.19
2022-11-09T20:34:58.200Z,100796.19
2022-11-09T20:37:24.663Z,100795.53
2022-11-09T20:39:51.112Z,100798.28
2022-11-09T20:42:17.573Z,100803.41
2022-11-09T20:44:44.032Z,100805.31
2022-11-09T20:47:10.484Z,100817.78
2022-11-09T20:49:36.926Z,100819.22
2022-11-09T20:52:04.262Z,100819.22
2022-11-09T20:54:30.705Z,100825.19
2022-11-09T20:56:57.182Z,100826.81
2022-11-09T20:59:23.648Z,100830.13
2022-11-09T21:01:50.143Z,100824.41
2022-11-09T21:04:16.739Z,100823.84
2022-11-09T21:06:43.236Z,100827.34
2022-11-09T21:09:09.819Z,100827.72
2022-11-09T21:11:36.327Z,100835.50
2022-11-09T21:14:03.248Z,100827.91
2022-11-09T21:16:29.696Z,100829.44
2022-11-09T21:18:56.165Z,100829.69
2022-11-09T21:21:24.056Z,100840.22
2022-11-09T21:24:09.242Z,100838.91
2022-11-09T21:26:58.756Z,100847.13
2022-11-09T21:29:43.849Z,100862.19
2022-11-09T21:32:11.538Z,100865.66
2022-11-09T21:34:38.202Z,100867.13
2022-11-09T21:37:04.864Z,100866.31
2022-11-09T21:39:31.663Z,100872.44
2022-11-09T21:41:58.745Z,100878.63
2022-11-09T21:44:27.256Z,100884.53
2022-11-09T21:46:53.725Z,100881.88
2022-11-09T21:49:20.219Z,100885.94
2022-11-09T21:51:47.045Z,100894.13
2022-11-09T21:54:13.515Z,100892.91
2022-11-09T21:56:40.064Z,100898.81
2022-11-09T21:59:06.634Z,100898.34
2022-11-09T22:01:33.148Z,100896.25
2022-11-09T22:03:59.681Z,100906.97
2022-11-09T22:06:26.135Z,100905.28
2022-11-09T22:08:52.676Z,100909.88
2022-11-09T22:11:41.420Z,100926.41
2022-11-09T22:14:34.702Z,100936.06
2022-11-09T22:17:01.641Z,100936.69
2022-11-09T22:20:06.519Z,100936.22
2022-11-09T22:22:34.225Z,100923.44
2022-11-09T22:25:00.675Z,100922.13
2022-11-09T22:27:28.791Z,100914.16
2022-11-09T22:29:55.237Z,100919.13
2022-11-09T22:32:21.777Z,100926.72
2022-11-09T22:34:48.375Z,100926.19
2022-11-09T22:37:14.849Z,100934.41
2022-11-09T22:39:46.765Z,100932.75
2022-11-09T22:42:13.846Z,100933.69
2022-11-09T22:44:40.389Z,100932.84
2022-11-09T22:47:06.843Z,100946.69
2022-11-09T22:49:34.154Z,100950.44
2022-11-09T22:52:00.611Z,100948.88
2022-11-09T22:54:27.807Z,100952.53
2022-11-09T22:56:54.272Z,100950.53
2022-11-09T22:59:20.712Z,100950.72
2022-11-09T23:01:47.261Z,100947.50
2022-11-09T23:04:13.759Z,100959.69
2022-11-09T23:06:40.325Z,100959.81
2022-11-09T23:09:06.928Z,100983.34
2022-11-09T23:11:33.395Z,100986.72
2022-11-09T23:13:59.861Z,100978.84
2022-11-09T23:16:26.309Z,100986.53
2022-11-09T23:18:53.916Z,100996.72
2022-11-09T23:21:34.141Z,101000.13
2022-11-09T23:24:03.728Z,100990.75
2022-11-09T23:26:31.174Z,100999.75
2022-11-09T23:28:57.656Z,101006.63
2022-11-09T23:31:24.488Z,100999.38
2022-11-09T23:33:52.370Z,101005.88
2022-11-09T23:36:19.447Z,101000.13
2022-11-09T23:38:46.205Z,101010.75
2022-11-09T23:41:13.222Z,101014.13
2022-11-09T23:43:39.735Z,101022.66
2022-11-09T23:46:08.488Z,101021.47
2022-11-09T23:48:35.225Z,101025.13
2022-11-09T23:51:02.364Z,101024.22
2022-11-09T23:53:30.103Z,101034.47
2022-11-09T23:56:07.260Z,101034.94
2022-11-09T23:58:33.815Z,101041.53
